Portada
METAR-TAF:

METAR-TAF

Aeroports :

Aeroport de Brussel·les

Brussel·les, Bèlgica

latitud: 50-54N, longitud: 004-32E, altitud: 55 m

Observació

L'informe es va fer fa 23 minuts, a les 14:50 UTC
Vent 12 kt del Nord/Nord-Oest
Temperatura 18°C
Humitat 56%
Pressió 1023 hPa
Visibilitat 10 km o més
sense núvols per sota de 1500 mi sense presència de cumulonimbus.

METAR: EBBR 171450Z 34012KT CAVOK 18/09 Q1023 NOSIG

Hora: 17:13 (15:13 UTC)

Pronòstic

L'informe es va fer fa 4 hores i 3 minuts, a les 11:10 UTC
Pronòstic vàlid del 17 a les 12 UTC al 18 a les 18 UTC
Vent 9 kt del Nord/Nord-Oest
Visibilitat 10 km o més
Núvols disperses a una alçada de 3000 ft

TAF: EBBR 171110Z 1712/1818 34009KT 9999 SCT030

Observacions i pronòstics meteorològics de més de 4000 aeroports (METAR i TAF).

Les estacions disponibles són els punts grocs i vermells al mapa.

Posi el ratolí al punt desitjat per veure el nom de l'estació.

Feu clic per veure les observacions i els pronòstics meteorològics.

Per canviar el mapa: feu clic els botons verds amb una creu de color negre per apropar; al botó verd amb un guió per allunyar la imatge; o en les fletxes verdes per a mapes adjacents.


METAR-TAF: